createdAt,value
2018-01-24T00:03:12.057Z,99.99
2018-01-24T00:12:48.568Z,99.99
2018-01-24T00:22:25.224Z,99.99
2018-01-24T00:32:01.669Z,99.99
2018-01-24T00:41:38.220Z,99.99
2018-01-24T00:51:18.956Z,99.99
2018-01-24T01:00:48.105Z,99.99
2018-01-24T01:10:33.068Z,99.99
2018-01-24T01:19:56.975Z,99.99
2018-01-24T01:29:33.948Z,99.99
2018-01-24T01:39:10.510Z,99.99
2018-01-24T01:48:47.465Z,99.99
2018-01-24T01:58:23.999Z,99.99
2018-01-24T02:08:01.001Z,99.99
2018-01-24T02:17:37.977Z,99.99
2018-01-24T02:27:14.382Z,99.99
2018-01-24T02:36:51.260Z,99.99
2018-01-24T02:46:27.987Z,99.99
2018-01-24T02:56:04.363Z,99.99
2018-01-24T03:05:40.886Z,99.99
2018-01-24T03:15:17.194Z,99.99
2018-01-24T03:24:54.043Z,99.99
2018-01-24T03:34:31.031Z,99.99
2018-01-24T03:44:07.536Z,99.99
2018-01-24T03:53:44.386Z,99.99
2018-01-24T04:03:21.124Z,99.99
2018-01-24T04:12:58.041Z,99.99
2018-01-24T04:22:34.915Z,99.99
2018-01-24T04:32:11.604Z,99.99
2018-01-24T04:41:48.086Z,99.99
2018-01-24T04:51:24.782Z,99.99
2018-01-24T05:01:01.154Z,99.99
2018-01-24T05:10:41.596Z,99.99
2018-01-24T05:20:11.007Z,99.99
2018-01-24T05:29:47.567Z,99.99
2018-01-24T05:39:24.243Z,99.99
2018-01-24T05:49:01.239Z,99.99
2018-01-24T05:58:37.872Z,99.99
2018-01-24T06:08:14.757Z,99.99
2018-01-24T06:17:51.559Z,99.99
2018-01-24T06:27:28.634Z,99.99
2018-01-24T06:37:05.440Z,99.99
2018-01-24T06:46:43.098Z,99.99
2018-01-24T06:56:20.644Z,99.99
2018-01-24T07:05:57.668Z,99.99
2018-01-24T07:15:34.452Z,99.99
2018-01-24T07:25:11.259Z,99.99
2018-01-24T07:34:48.408Z,99.99
2018-01-24T07:44:24.522Z,99.99
2018-01-24T07:54:01.353Z,99.99
2018-01-24T08:03:38.680Z,99.99
2018-01-24T08:13:16.169Z,99.99
2018-01-24T08:22:57.595Z,98.75
2018-01-24T08:32:27.852Z,95.14
2018-01-24T08:42:13.271Z,95.45
2018-01-24T08:51:37.405Z,94.89
2018-01-24T09:01:14.705Z,92.93
2018-01-24T09:10:55.814Z,88.84
2018-01-24T09:20:24.562Z,86.47
2018-01-24T09:30:01.545Z,87.88
2018-01-24T09:39:37.223Z,87.37
2018-01-24T09:49:13.967Z,85.52
2018-01-24T09:58:55.060Z,84.09
2018-01-24T10:08:23.258Z,81.33
2018-01-24T10:18:04.478Z,79.46
2018-01-24T10:27:45.556Z,76.53
2018-01-24T10:37:18.682Z,72.71
2018-01-24T10:46:47.621Z,72.74
2018-01-24T10:56:25.093Z,72.27
2018-01-24T11:06:02.139Z,70.55
2018-01-24T11:15:39.693Z,63.62
2018-01-24T11:25:17.424Z,54.74
2018-01-24T11:34:54.504Z,58.45
2018-01-24T11:44:35.977Z,60.46
2018-01-24T11:54:04.707Z,65.01
2018-01-24T12:03:41.085Z,63.18
2018-01-24T12:13:22.282Z,62.84
2018-01-24T12:22:51.147Z,62.51
2018-01-24T12:32:26.530Z,60.97
2018-01-24T12:42:04.010Z,62.46
2018-01-24T12:51:42.349Z,59.09
2018-01-24T13:01:21.458Z,57.10
2018-01-24T13:10:55.156Z,60.22
2018-01-24T13:20:33.316Z,61.02
2018-01-24T13:30:08.618Z,59.87
2018-01-24T13:39:47.637Z,57.94
2018-01-24T13:49:26.345Z,55.79
2018-01-24T13:59:04.615Z,58.07
2018-01-24T14:08:40.958Z,55.02
2018-01-24T14:18:15.084Z,58.33
2018-01-24T14:27:51.214Z,61.72
2018-01-24T14:37:21.854Z,63.35
2018-01-24T14:46:56.810Z,62.56
2018-01-24T14:56:32.480Z,63.65
2018-01-24T15:06:12.214Z,64.92
2018-01-24T15:15:40.388Z,69.03
2018-01-24T15:25:16.154Z,70.09
2018-01-24T15:34:55.332Z,74.98
2018-01-24T15:44:23.117Z,78.40
2018-01-24T15:54:02.051Z,82.07
2018-01-24T16:03:29.841Z,84.27
2018-01-24T16:13:05.315Z,85.20
2018-01-24T16:22:41.881Z,85.96
2018-01-24T16:32:18.095Z,87.56
2018-01-24T16:41:53.982Z,88.06
2018-01-24T16:51:30.500Z,90.14
2018-01-24T17:01:06.971Z,90.81
2018-01-24T17:10:42.026Z,92.25
2018-01-24T17:20:17.795Z,93.12
2018-01-24T17:29:53.865Z,93.79
2018-01-24T17:39:29.820Z,94.21
2018-01-24T17:49:06.921Z,94.71
2018-01-24T17:58:38.938Z,97.10
2018-01-24T18:08:15.046Z,97.31
2018-01-24T18:17:51.299Z,97.31
2018-01-24T18:27:27.624Z,97.77
2018-01-24T18:37:03.637Z,98.44
2018-01-24T18:46:40.520Z,98.55
2018-01-24T18:56:16.764Z,99.91
2018-01-24T19:05:53.116Z,99.99
2018-01-24T19:15:29.879Z,99.99
2018-01-24T19:25:05.942Z,99.99
2018-01-24T19:34:46.149Z,99.99
2018-01-24T19:44:14.709Z,99.99
2018-01-24T19:53:51.042Z,99.99
2018-01-24T20:03:27.461Z,99.99
2018-01-24T20:13:03.952Z,99.99
2018-01-24T20:22:40.457Z,99.99
2018-01-24T20:32:16.496Z,99.99
2018-01-24T20:41:52.949Z,99.99
2018-01-24T20:51:29.669Z,99.99
2018-01-24T21:01:06.732Z,99.99
2018-01-24T21:10:43.496Z,99.99
2018-01-24T21:20:19.704Z,99.99
2018-01-24T21:29:56.472Z,99.99
2018-01-24T21:39:33.118Z,99.99
2018-01-24T21:49:09.876Z,99.99
2018-01-24T21:58:46.491Z,99.99
2018-01-24T22:08:23.357Z,99.99
2018-01-24T22:17:59.628Z,99.99
2018-01-24T22:27:36.325Z,99.99
2018-01-24T22:37:13.006Z,99.99
2018-01-24T22:46:49.735Z,99.99
2018-01-24T22:56:26.140Z,99.99
2018-01-24T23:06:01.956Z,99.99
2018-01-24T23:15:38.741Z,99.99
2018-01-24T23:25:15.595Z,99.99
2018-01-24T23:34:51.956Z,99.99
2018-01-24T23:44:28.407Z,99.99
2018-01-24T23:54:05.440Z,99.99
